createdAt,value
2022-11-30T00:02:00.637Z,28.92
2022-11-30T00:04:46.833Z,26.60
2022-11-30T00:07:33.427Z,29.05
2022-11-30T00:10:19.060Z,29.60
2022-11-30T00:13:07.046Z,28.92
2022-11-30T00:15:52.652Z,31.27
2022-11-30T00:18:39.796Z,27.58
2022-11-30T00:21:25.429Z,30.70
2022-11-30T00:24:11.085Z,28.27
2022-11-30T00:26:56.581Z,27.45
2022-11-30T00:29:42.507Z,29.40
2022-11-30T00:32:28.613Z,30.85
2022-11-30T00:35:17.793Z,26.73
2022-11-30T00:38:03.809Z,30.48
2022-11-30T00:40:49.585Z,30.58
2022-11-30T00:43:35.468Z,27.48
2022-11-30T00:46:21.524Z,29.73
2022-11-30T00:49:07.467Z,34.40
2022-11-30T00:51:54.609Z,31.23
2022-11-30T00:54:40.199Z,29.98
2022-11-30T00:57:25.863Z,30.15
2022-11-30T01:00:12.263Z,30.90
2022-11-30T01:02:59.506Z,30.13
2022-11-30T01:05:45.042Z,31.08
2022-11-30T01:08:32.878Z,32.63
2022-11-30T01:11:23.931Z,29.85
2022-11-30T01:14:09.888Z,30.88
2022-11-30T01:16:56.477Z,30.40
2022-11-30T01:19:42.551Z,28.77
2022-11-30T01:22:28.870Z,27.67
2022-11-30T01:25:16.280Z,30.58
2022-11-30T01:28:01.716Z,31.88
2022-11-30T01:30:56.852Z,29.63
2022-11-30T01:33:43.233Z,28.55
2022-11-30T01:36:28.798Z,34.65
2022-11-30T01:39:15.106Z,33.17
2022-11-30T01:42:02.236Z,32.10
2022-11-30T01:44:55.022Z,30.35
2022-11-30T01:47:43.218Z,33.10
2022-11-30T01:50:30.684Z,31.48
2022-11-30T01:53:16.454Z,29.70
2022-11-30T01:56:02.259Z,28.33
2022-11-30T01:58:50.175Z,30.85
2022-11-30T02:01:36.152Z,27.90
2022-11-30T02:04:24.781Z,27.98
2022-11-30T02:09:56.663Z,27.00
2022-11-30T02:12:57.377Z,27.08
2022-11-30T02:21:35.044Z,32.15
2022-11-30T02:24:43.528Z,29.90
2022-11-30T02:27:48.571Z,26.52
2022-11-30T02:30:40.810Z,31.70
2022-11-30T02:33:31.283Z,29.77
2022-11-30T02:36:18.182Z,27.70
2022-11-30T02:39:05.025Z,27.80
2022-11-30T02:41:51.080Z,27.75
2022-11-30T02:44:36.627Z,30.45
2022-11-30T02:47:31.311Z,27.48
2022-11-30T02:50:22.213Z,27.73
2022-11-30T02:53:10.788Z,29.42
2022-11-30T02:55:56.566Z,29.08
2022-11-30T02:58:42.064Z,28.42
2022-11-30T03:01:28.034Z,27.33
2022-11-30T03:04:15.294Z,29.48
2022-11-30T03:07:01.229Z,30.63
2022-11-30T03:09:46.766Z,27.15
2022-11-30T03:12:32.412Z,29.20
2022-11-30T03:15:18.293Z,28.42
2022-11-30T03:18:04.849Z,32.83
2022-11-30T03:20:51.958Z,30.90
2022-11-30T03:23:39.523Z,29.25
2022-11-30T03:26:25.353Z,32.28
2022-11-30T03:29:11.026Z,32.13
2022-11-30T03:31:56.729Z,32.75
2022-11-30T03:34:42.412Z,33.20
2022-11-30T03:40:15.560Z,32.75
2022-11-30T03:43:01.270Z,36.42
2022-11-30T03:45:46.884Z,32.35
2022-11-30T03:48:32.668Z,34.33
2022-11-30T03:51:18.609Z,31.73
2022-11-30T03:54:05.716Z,34.20
2022-11-30T03:56:51.386Z,30.00
2022-11-30T03:59:37.032Z,31.15
2022-11-30T04:02:22.609Z,31.52
2022-11-30T04:05:09.089Z,32.10
2022-11-30T04:07:54.658Z,33.83
2022-11-30T04:10:41.423Z,33.20
2022-11-30T04:13:27.588Z,35.58
2022-11-30T04:16:13.325Z,31.92
2022-11-30T04:18:59.083Z,31.73
2022-11-30T04:21:44.662Z,36.20
2022-11-30T04:27:18.005Z,47.43
2022-11-30T04:32:49.857Z,37.70
2022-11-30T04:35:40.796Z,35.35
2022-11-30T04:38:27.751Z,32.80
2022-11-30T04:41:13.491Z,45.00
2022-11-30T04:52:17.878Z,31.65
2022-11-30T04:55:04.449Z,33.40
2022-11-30T04:57:50.001Z,32.17
2022-11-30T05:00:36.912Z,33.27
2022-11-30T05:03:22.649Z,34.53
2022-11-30T05:08:54.312Z,38.55
2022-11-30T05:14:26.186Z,36.70
2022-11-30T05:17:13.301Z,34.40
2022-11-30T05:19:58.647Z,36.90
2022-11-30T05:25:29.871Z,35.38
2022-11-30T05:28:15.610Z,38.55
2022-11-30T05:31:04.373Z,38.40
2022-11-30T05:33:52.119Z,36.30
2022-11-30T05:36:38.235Z,36.05
2022-11-30T05:39:23.610Z,36.78
2022-11-30T05:42:09.619Z,39.38
2022-11-30T05:44:55.144Z,39.25
2022-11-30T05:47:40.898Z,39.30
2022-11-30T05:50:28.470Z,42.42
2022-11-30T05:53:14.148Z,38.97
2022-11-30T05:56:02.235Z,36.58
2022-11-30T05:58:48.571Z,40.95
2022-11-30T06:01:34.590Z,37.80
2022-11-30T06:04:21.727Z,42.30
2022-11-30T06:07:11.920Z,38.70
2022-11-30T06:09:57.717Z,38.72
2022-11-30T06:12:43.341Z,36.05
2022-11-30T06:15:28.810Z,36.80
2022-11-30T06:18:14.432Z,39.47
2022-11-30T06:21:01.504Z,41.17
2022-11-30T06:23:48.801Z,35.08
2022-11-30T06:26:34.346Z,35.28
2022-11-30T06:29:20.049Z,39.88
2022-11-30T06:32:07.893Z,38.20
2022-11-30T06:37:39.615Z,31.02
2022-11-30T06:40:27.552Z,34.78
2022-11-30T06:43:13.454Z,34.50
2022-11-30T06:45:59.686Z,38.40
2022-11-30T06:48:49.254Z,58.10
2022-11-30T06:51:35.425Z,46.05
2022-11-30T06:57:08.089Z,37.30
2022-11-30T06:59:53.679Z,39.25
2022-11-30T07:02:39.306Z,37.43
2022-11-30T07:05:25.605Z,63.03
2022-11-30T07:08:12.044Z,51.35
2022-11-30T07:10:59.761Z,49.75
2022-11-30T07:13:46.737Z,40.83
2022-11-30T07:16:32.757Z,42.30
2022-11-30T07:19:19.036Z,35.75
2022-11-30T07:22:05.219Z,43.67
2022-11-30T07:25:09.535Z,39.55
2022-11-30T07:27:55.864Z,36.33
2022-11-30T07:30:43.153Z,36.53
2022-11-30T07:33:30.670Z,45.35
2022-11-30T07:36:17.629Z,39.38
2022-11-30T07:39:03.723Z,38.90
2022-11-30T07:44:36.932Z,37.17
2022-11-30T07:50:11.308Z,50.27
2022-11-30T07:52:56.965Z,41.05
2022-11-30T07:55:43.017Z,38.75
2022-11-30T07:58:30.008Z,40.38
2022-11-30T08:01:18.334Z,41.65
2022-11-30T08:04:05.848Z,45.17
2022-11-30T08:06:54.331Z,38.67
2022-11-30T08:09:40.310Z,40.92
2022-11-30T08:12:26.354Z,41.83
2022-11-30T08:15:19.755Z,32.13
2022-11-30T08:18:07.476Z,32.60
2022-11-30T08:20:58.679Z,37.97
2022-11-30T08:23:46.106Z,38.95
2022-11-30T08:26:33.372Z,33.25
2022-11-30T08:29:19.371Z,35.15
2022-11-30T08:32:05.601Z,39.45
2022-11-30T08:34:51.251Z,40.55
2022-11-30T08:37:39.289Z,39.60
2022-11-30T08:40:25.519Z,40.15
2022-11-30T08:43:11.235Z,35.80
2022-11-30T08:45:57.624Z,43.17
2022-11-30T08:48:43.340Z,41.92
2022-11-30T08:54:39.162Z,78.05
2022-11-30T09:02:56.824Z,59.55
2022-11-30T09:11:17.842Z,54.83
2022-11-30T09:14:04.984Z,49.07
2022-11-30T09:16:50.807Z,54.35
2022-11-30T09:19:36.639Z,53.45
2022-11-30T10:02:14.462Z,35.00
2022-11-30T10:05:01.084Z,35.25
2022-11-30T10:08:12.859Z,36.78
2022-11-30T10:14:17.978Z,31.77
2022-11-30T10:20:08.776Z,30.65
2022-11-30T10:23:15.505Z,27.60
2022-11-30T10:26:06.922Z,27.75
2022-11-30T10:31:40.722Z,25.73
2022-11-30T10:34:32.397Z,28.48
2022-11-30T10:37:22.666Z,24.98
2022-11-30T10:40:16.304Z,28.48
2022-11-30T10:43:13.885Z,24.92
2022-11-30T10:46:00.020Z,24.08
2022-11-30T10:48:51.670Z,27.55
2022-11-30T10:51:43.371Z,27.65
2022-11-30T10:54:30.944Z,26.70
2022-11-30T10:57:16.704Z,26.70
2022-11-30T11:00:06.924Z,27.83
2022-11-30T11:02:53.646Z,24.23
2022-11-30T11:05:39.900Z,30.75
2022-11-30T11:08:27.938Z,26.85
2022-11-30T11:11:32.585Z,26.20
2022-11-30T11:14:20.813Z,23.75
2022-11-30T11:17:24.163Z,24.10
2022-11-30T11:23:22.947Z,22.40
2022-11-30T11:26:18.950Z,26.02
2022-11-30T11:29:04.548Z,25.50
2022-11-30T11:31:50.255Z,22.08
2022-11-30T11:34:37.389Z,17.45
2022-11-30T11:37:28.875Z,17.38
2022-11-30T11:40:16.475Z,20.80
2022-11-30T11:43:16.194Z,17.17
2022-11-30T11:46:11.453Z,19.00
2022-11-30T11:48:59.110Z,16.60
2022-11-30T11:51:45.711Z,17.90
2022-11-30T11:54:36.782Z,19.27
2022-11-30T11:57:34.347Z,17.58
2022-11-30T12:00:25.497Z,18.20
2022-11-30T12:03:38.411Z,17.38
2022-11-30T12:06:24.742Z,20.98
2022-11-30T12:09:16.168Z,17.90
2022-11-30T12:12:01.802Z,18.67
2022-11-30T12:14:47.701Z,20.65
2022-11-30T12:17:46.869Z,21.52
2022-11-30T12:23:45.578Z,17.77
2022-11-30T12:26:38.233Z,22.70
2022-11-30T12:29:26.955Z,19.70
2022-11-30T12:32:26.155Z,21.83
2022-11-30T12:35:28.302Z,23.25
2022-11-30T12:38:26.004Z,21.55
2022-11-30T12:41:30.964Z,22.13
2022-11-30T12:44:35.508Z,20.67
2022-11-30T12:47:39.435Z,19.70
2022-11-30T12:50:36.127Z,23.10
2022-11-30T12:53:28.965Z,22.67
2022-11-30T12:56:25.781Z,22.83
2022-11-30T12:59:21.829Z,25.30
2022-11-30T13:05:09.382Z,26.15
2022-11-30T13:08:03.153Z,26.95
2022-11-30T13:10:55.216Z,30.17
2022-11-30T13:13:47.722Z,28.48
2022-11-30T13:16:36.223Z,25.63
2022-11-30T13:19:39.116Z,26.50
2022-11-30T13:22:32.807Z,25.15
2022-11-30T13:25:59.762Z,23.45
2022-11-30T13:28:50.439Z,24.55
2022-11-30T13:31:41.330Z,28.13
2022-11-30T13:34:29.104Z,26.23
2022-11-30T13:37:21.990Z,24.42
2022-11-30T13:40:21.358Z,26.70
2022-11-30T13:43:15.931Z,27.17
2022-11-30T13:46:20.844Z,24.00
2022-11-30T13:49:19.056Z,22.67
2022-11-30T13:55:46.023Z,24.35
2022-11-30T13:58:32.336Z,20.48
2022-11-30T14:01:25.374Z,24.38
2022-11-30T14:04:33.769Z,18.63
2022-11-30T14:07:36.269Z,21.33
2022-11-30T14:10:29.311Z,20.10
2022-11-30T14:13:30.525Z,17.00
2022-11-30T14:16:24.317Z,12.90
2022-11-30T14:19:10.933Z,12.70
2022-11-30T14:21:58.375Z,14.02
2022-11-30T14:24:47.066Z,11.23
2022-11-30T14:27:35.877Z,10.23
2022-11-30T14:30:23.637Z,13.38
2022-11-30T14:33:19.775Z,13.82
2022-11-30T14:36:08.415Z,12.63
2022-11-30T14:38:54.382Z,15.32
2022-11-30T14:41:41.777Z,14.63
2022-11-30T14:44:28.178Z,13.63
2022-11-30T14:47:15.719Z,12.75
2022-11-30T14:50:05.762Z,13.73
2022-11-30T14:53:17.965Z,11.82
2022-11-30T14:56:15.455Z,14.73
2022-11-30T14:59:10.836Z,12.88
2022-11-30T15:01:58.766Z,11.45
2022-11-30T15:04:44.366Z,16.40
2022-11-30T15:07:31.396Z,14.63
2022-11-30T15:10:29.321Z,14.02
2022-11-30T15:13:19.082Z,17.95
2022-11-30T15:16:09.922Z,17.85
2022-11-30T15:18:57.393Z,20.25
2022-11-30T15:21:47.128Z,19.20
2022-11-30T15:24:33.915Z,22.58
2022-11-30T15:27:22.798Z,26.23
2022-11-30T15:30:14.706Z,24.05
2022-11-30T15:33:00.296Z,21.55
2022-11-30T15:36:13.741Z,24.25
2022-11-30T15:38:54.038Z,26.83
2022-11-30T15:41:44.029Z,23.33
2022-11-30T15:44:40.221Z,25.98
2022-11-30T15:47:32.155Z,26.52
2022-11-30T15:50:37.717Z,23.90
2022-11-30T15:53:47.702Z,35.85
2022-11-30T15:56:33.551Z,45.58
2022-11-30T15:59:24.776Z,30.42
2022-11-30T16:02:26.875Z,32.03
2022-11-30T16:05:26.406Z,28.40
2022-11-30T16:08:16.554Z,28.13
2022-11-30T16:11:07.919Z,31.00
2022-11-30T16:13:53.983Z,27.42
2022-11-30T16:16:41.203Z,31.25
2022-11-30T16:19:26.804Z,32.47
2022-11-30T16:22:13.934Z,32.42
2022-11-30T16:24:59.408Z,31.88
2022-11-30T16:27:45.081Z,29.92
2022-11-30T16:30:30.792Z,25.77
2022-11-30T16:33:19.789Z,31.10
2022-11-30T16:36:08.966Z,28.85
2022-11-30T16:38:54.745Z,28.38
2022-11-30T16:41:40.700Z,36.50
2022-11-30T16:44:26.576Z,32.78
2022-11-30T16:47:12.039Z,33.40
2022-11-30T16:49:59.009Z,31.50
2022-11-30T16:52:45.224Z,35.97
2022-11-30T16:55:34.664Z,38.10
2022-11-30T16:58:20.140Z,33.55
2022-11-30T17:01:07.561Z,32.78
2022-11-30T17:03:53.585Z,34.83
2022-11-30T17:06:40.891Z,35.92
2022-11-30T17:09:27.146Z,36.17
2022-11-30T17:12:12.874Z,39.33
2022-11-30T17:14:58.640Z,36.25
2022-11-30T17:17:45.049Z,34.83
2022-11-30T17:20:30.582Z,38.45
2022-11-30T17:23:17.927Z,38.92
2022-11-30T17:26:04.024Z,37.03
2022-11-30T17:28:50.007Z,37.42
2022-11-30T17:31:35.686Z,37.10
2022-11-30T17:34:21.189Z,37.17
2022-11-30T17:37:07.125Z,38.08
2022-11-30T17:39:54.443Z,42.67
2022-11-30T17:42:40.206Z,40.47
2022-11-30T17:45:26.127Z,38.38
2022-11-30T17:48:12.092Z,36.85
2022-11-30T17:50:57.470Z,36.40
2022-11-30T17:53:44.640Z,39.55
2022-11-30T17:56:32.039Z,38.30
2022-11-30T17:59:17.901Z,40.92
2022-11-30T18:02:03.916Z,44.50
2022-11-30T18:04:50.493Z,45.05
2022-11-30T18:07:36.755Z,44.08
2022-11-30T18:10:22.280Z,44.63
2022-11-30T18:13:09.694Z,42.08
2022-11-30T18:16:06.621Z,37.42
2022-11-30T18:18:53.149Z,42.55
2022-11-30T18:21:40.252Z,45.88
2022-11-30T18:24:26.105Z,46.47
2022-11-30T18:27:12.351Z,45.47
2022-11-30T18:29:59.633Z,44.00
2022-11-30T18:32:45.218Z,39.67
2022-11-30T18:35:30.719Z,43.97
2022-11-30T18:38:16.441Z,54.00
2022-11-30T18:41:02.110Z,49.97
2022-11-30T18:43:48.401Z,44.33
2022-11-30T18:46:35.694Z,46.95
2022-11-30T18:49:22.616Z,42.80
2022-11-30T18:52:08.616Z,44.15
2022-11-30T18:54:54.337Z,45.60
2022-11-30T18:57:40.076Z,52.03
2022-11-30T19:00:25.882Z,45.40
2022-11-30T19:03:13.255Z,54.78
2022-11-30T19:06:02.678Z,49.55
2022-11-30T19:08:48.732Z,43.78
2022-11-30T19:11:34.969Z,48.75
2022-11-30T19:14:23.205Z,43.80
2022-11-30T19:17:09.346Z,44.00
2022-11-30T19:19:56.654Z,47.22
2022-11-30T19:22:42.394Z,48.30
2022-11-30T19:25:28.200Z,45.17
2022-11-30T19:28:14.359Z,56.67
2022-11-30T19:31:00.773Z,47.47
2022-11-30T19:33:48.565Z,45.22
2022-11-30T19:36:35.748Z,45.08
2022-11-30T19:39:21.238Z,47.63
2022-11-30T19:42:07.277Z,46.22
2022-11-30T19:44:53.054Z,44.97
2022-11-30T19:47:38.842Z,44.42
2022-11-30T19:50:24.635Z,44.75
2022-11-30T19:53:11.989Z,39.90
2022-11-30T19:55:57.933Z,41.92
2022-11-30T19:58:45.504Z,44.72
2022-11-30T20:01:31.740Z,44.42
2022-11-30T20:04:17.750Z,44.53
2022-11-30T20:07:03.152Z,44.72
2022-11-30T20:09:50.491Z,47.08
2022-11-30T20:12:36.295Z,42.53
2022-11-30T20:15:22.008Z,42.72
2022-11-30T20:18:08.231Z,41.35
2022-11-30T20:20:53.994Z,43.97
2022-11-30T20:23:39.905Z,43.42
2022-11-30T20:26:30.163Z,41.35
2022-11-30T20:29:17.773Z,40.35
2022-11-30T20:32:05.687Z,39.08
2022-11-30T20:34:51.693Z,39.53
2022-11-30T20:37:37.610Z,42.63
2022-11-30T20:40:23.765Z,42.00
2022-11-30T20:43:10.971Z,44.50
2022-11-30T20:45:56.828Z,44.30
2022-11-30T20:48:42.856Z,39.70
2022-11-30T20:51:31.821Z,43.20
2022-11-30T21:02:37.101Z,36.08
2022-11-30T21:05:22.708Z,43.30
2022-11-30T21:08:08.565Z,43.75
2022-11-30T21:10:54.289Z,41.10
2022-11-30T21:13:41.108Z,41.80
2022-11-30T21:16:29.862Z,42.53
2022-11-30T21:19:16.158Z,42.28
2022-11-30T21:22:04.085Z,42.85
2022-11-30T21:24:50.041Z,40.67
2022-11-30T21:27:36.053Z,43.45
2022-11-30T21:30:21.672Z,45.47
2022-11-30T21:33:09.128Z,48.58
2022-11-30T21:35:54.865Z,45.35
2022-11-30T21:38:41.717Z,44.72
2022-11-30T21:41:27.741Z,42.88
2022-11-30T21:44:15.400Z,46.13
2022-11-30T21:47:01.288Z,44.13
2022-11-30T21:49:48.225Z,44.67
2022-11-30T21:52:35.973Z,47.88
2022-11-30T21:55:21.647Z,47.15
2022-11-30T21:58:07.360Z,44.20
2022-11-30T22:00:56.065Z,45.97
2022-11-30T22:03:41.861Z,46.22
2022-11-30T22:06:30.487Z,48.25
2022-11-30T22:09:17.466Z,51.75
2022-11-30T22:12:03.274Z,49.70
2022-11-30T22:14:49.072Z,45.90
2022-11-30T22:17:34.676Z,43.25
2022-11-30T22:20:20.206Z,45.15
2022-11-30T22:23:07.466Z,46.35
2022-11-30T22:25:53.032Z,45.95
2022-11-30T22:28:40.012Z,50.70
2022-11-30T22:31:27.453Z,51.35
2022-11-30T22:34:13.516Z,45.38
2022-11-30T22:36:59.167Z,44.20
2022-11-30T22:39:46.525Z,46.53
2022-11-30T22:42:35.083Z,49.38
2022-11-30T22:45:20.427Z,49.17
2022-11-30T22:48:06.581Z,44.20
2022-11-30T22:50:52.182Z,45.35
2022-11-30T22:53:38.451Z,46.83
2022-11-30T22:56:27.402Z,47.03
2022-11-30T22:59:13.670Z,48.30
2022-11-30T23:01:59.202Z,46.47
2022-11-30T23:04:44.834Z,43.63
2022-11-30T23:07:32.237Z,38.58
2022-11-30T23:13:07.732Z,46.95
2022-11-30T23:21:34.783Z,50.47
2022-11-30T23:49:23.733Z,51.60
2022-11-30T23:52:09.493Z,49.05
2022-11-30T23:57:41.314Z,48.95
